Norwegian Dawn — C6FT7 — position and weather

sailwx.info

Track history (hours):
 
Tides and Currents Weather Stations Pressure Air Temp Water Temp Dewpoint Dewpoint Depression Visibility Wind Speed Wind Dir Waves Ship Positions

Norwegian Dawn

Operator: Norwegian Cruise Line

Last reported at 2019-Oct-18 13:38 UTC. Time now 2019-Oct-19 00:29 UTC.
Position N 42°42' W 070°40'.

Type: Ship. MMSI: 311307000.

Date/timePositionNaut miles runAvg speedWind from/ knotsBaromVisibWave heightAir tempDewpointWater temp
2019-Oct-18 13:38N 42°42' W 070°40'0 0.0
2019-Oct-17 21:15N 42°42' W 070°40'0 0.0
2019-Oct-17 21:00N 42°42' W 070°40'0 0.1
2019-Oct-17 20:31N 42°42' W 070°41'0 0.0
2019-Oct-17 20:01N 42°42' W 070°41'0 0.0
2019-Oct-17 19:31N 42°42' W 070°41'0 0.0
2019-Oct-17 19:00N 42°42' W 070°41'0 0.0
2019-Oct-17 18:30N 42°42' W 070°41'0 0.0
2019-Oct-17 18:01N 42°42' W 070°41'0 0.0
2019-Oct-17 17:31N 42°42' W 070°41'0 0.0
2019-Oct-17 17:00N 42°42' W 070°41'0 0.0
2019-Oct-17 16:30N 42°42' W 070°41'0 0.0
2019-Oct-17 15:47N 42°42' W 070°41'6 1.0
2019-Oct-17 09:00N 42°36' W 070°36'7 3.0 180 / 32978.0 5.4 15.6 12.0
2019-Oct-17 06:44N 42°43' W 070°38'2 9.5
2019-Oct-17 06:31N 42°43' W 070°35'510.5
2019-Oct-17 06:00N 42°39' W 070°29'612.1
2019-Oct-17 05:30N 42°35' W 070°34'612.2
2019-Oct-17 05:00N 42°31' W 070°41'612.6
2019-Oct-17 04:30N 42°27' W 070°48'4 7.2
2019-Oct-17 04:01N 42°24' W 070°48'611.0
2019-Oct-17 03:31N 42°23' W 070°41'5 6.5
2019-Oct-17 02:44N 42°28' W 070°43'1 5.8
2019-Oct-17 02:31N 42°28' W 070°45'4 7.2
2019-Oct-17 02:00N 42°24' W 070°44'1 0.4
2019-Oct-16 22:34N 42°24' W 070°45'1 9.6
2019-Oct-16 22:31N 42°24' W 070°46'611.2
2019-Oct-16 22:00N 42°23' W 070°54'510.9
2019-Oct-16 21:30N 42°20' W 071°01'1 1.3
2019-Oct-16 20:57N 42°21' W 071°02'0 0.0
2019-Oct-16 20:27N 42°21' W 071°02'0 0.0
2019-Oct-16 19:57N 42°21' W 071°02'0 0.0
2019-Oct-16 19:21N 42°21' W 071°02'0 0.0
2019-Oct-16 18:15N 42°21' W 071°02'0 0.0
2019-Oct-16 17:48N 42°21' W 071°02'0 0.0
2019-Oct-16 17:27N 42°21' W 071°02'0 0.0
2019-Oct-16 16:57N 42°21' W 071°02'0 0.0
2019-Oct-16 16:15N 42°21' W 071°02'0 0.0
2019-Oct-16 14:39N 42°21' W 071°02'0 0.0
2019-Oct-16 14:27N 42°21' W 071°02'0 0.0
2019-Oct-16 13:33N 42°21' W 071°02'0 0.0
2019-Oct-16 13:30N 42°21' W 071°02'0 0.0
2019-Oct-16 12:57N 42°21' W 071°02'0 0.0
2019-Oct-16 12:30N 42°21' W 071°02'0 0.0
2019-Oct-16 12:00N 42°21' W 071°02'1 2.0
2019-Oct-16 11:30N 42°20' W 071°00'4 7.9
2019-Oct-16 11:00N 42°22' W 070°55'510.7
2019-Oct-16 10:30N 42°24' W 070°49'4 8.2
2019-Oct-16 10:00N 42°24' W 070°43'  
2019-Oct-13 22:27N 44°22' W 063°28'920.9
2019-Oct-13 22:00N 44°31' W 063°31'713.0
2019-Oct-13 21:30N 44°37' W 063°33'1 2.4
2019-Oct-13 21:00N 44°38' W 063°34'0 0.0
2019-Oct-13 20:30N 44°38' W 063°34'0 0.0
2019-Oct-13 20:00N 44°38' W 063°34'0 0.0
2019-Oct-13 19:30N 44°38' W 063°34'0 0.0
2019-Oct-13 19:00N 44°38' W 063°34'0 0.0
2019-Oct-13 18:30N 44°38' W 063°34'0 0.0
2019-Oct-13 18:00N 44°38' W 063°34'0 0.0
2019-Oct-13 17:30N 44°38' W 063°34'0 0.0
2019-Oct-13 17:00N 44°38' W 063°34'0 0.0
2019-Oct-13 16:30N 44°38' W 063°34'0 0.0
2019-Oct-13 15:57N 44°38' W 063°34'0 0.0
2019-Oct-13 15:30N 44°38' W 063°34'0 0.0
2019-Oct-13 15:00N 44°38' W 063°34'0 0.0
2019-Oct-13 14:30N 44°38' W 063°34'0 0.0
2019-Oct-13 14:00N 44°38' W 063°34'0 0.0
2019-Oct-13 13:30N 44°38' W 063°34'0 0.0
2019-Oct-13 13:00N 44°38' W 063°34'0 0.0
2019-Oct-13 12:30N 44°38' W 063°34'0 0.0
2019-Oct-13 12:00N 44°38' W 063°34'0 0.0
2019-Oct-13 11:30N 44°38' W 063°34'0 0.0
2019-Oct-13 11:00N 44°38' W 063°34'1 1.5
2019-Oct-13 10:30N 44°38' W 063°33'612.6
2019-Oct-13 10:00N 44°32' W 063°31'611.3
2019-Oct-13 09:31N 44°27' W 063°26'815.0
2019-Oct-13 09:00N 44°27' W 063°15'817.0
2019-Oct-13 08:31N 44°27' W 063°03'  
2019-Oct-10 20:35N 49°10' W 058°23'219.6
2019-Oct-10 20:30N 49°09' W 058°20'918.8
2019-Oct-10 20:00N 49°04' W 058°09'713.3
2019-Oct-10 19:30N 48°59' W 058°02'4 7.0
2019-Oct-10 18:58N 48°58' W 057°57'0 0.0
2019-Oct-10 18:28N 48°58' W 057°57'0 0.0
2019-Oct-10 17:58N 48°58' W 057°57'0 0.0
2019-Oct-10 17:28N 48°58' W 057°57'0 0.0
2019-Oct-10 16:58N 48°58' W 057°57'0 0.0
2019-Oct-10 16:28N 48°58' W 057°57'0 0.0
2019-Oct-10 15:58N 48°58' W 057°57'0 0.0
2019-Oct-10 15:28N 48°58' W 057°57'0 0.0
2019-Oct-10 14:58N 48°58' W 057°57'0 0.0
2019-Oct-10 14:28N 48°58' W 057°57'0 0.0
2019-Oct-10 13:58N 48°58' W 057°57'0 0.0
2019-Oct-10 13:28N 48°58' W 057°57'0 0.0
2019-Oct-10 12:58N 48°58' W 057°57'0 0.0
2019-Oct-10 12:28N 48°58' W 057°57'0 0.0
2019-Oct-10 11:58N 48°58' W 057°57'0 0.0
2019-Oct-10 11:28N 48°58' W 057°57'0 0.1
2019-Oct-10 11:00N 48°58' W 057°57'2 3.1
2019-Oct-10 10:31N 48°58' W 057°59'713.6
2019-Oct-10 10:00N 49°02' W 058°08'610.8
2019-Oct-10 09:29N 49°05' W 058°14'511.5
2019-Oct-10 09:00N 49°09' W 058°20'  
Track history (hours):
 
Tides and Currents Weather Stations Pressure Air Temp Water Temp Dewpoint Dewpoint Depression Visibility Wind Speed Wind Dir Waves Ship Positions

Norwegian Dawn

Operator: Norwegian Cruise Line

Last reported at 2019-Oct-18 13:38 UTC. Time now 2019-Oct-19 00:29 UTC.
Position N 42°42' W 070°40'.

Type: Ship. MMSI: 311307000.

Date/timePositionNaut miles runAvg speedWind from/ knotsBaromVisibWave heightAir tempDewpointWater temp
2019-Oct-18 13:38N 42°42' W 070°40'0 0.0
2019-Oct-17 21:15N 42°42' W 070°40'0 0.0
2019-Oct-17 21:00N 42°42' W 070°40'0 0.1
2019-Oct-17 20:31N 42°42' W 070°41'0 0.0
2019-Oct-17 20:01N 42°42' W 070°41'0 0.0
2019-Oct-17 19:31N 42°42' W 070°41'0 0.0
2019-Oct-17 19:00N 42°42' W 070°41'0 0.0
2019-Oct-17 18:30N 42°42' W 070°41'0 0.0
2019-Oct-17 18:01N 42°42' W 070°41'0 0.0
2019-Oct-17 17:31N 42°42' W 070°41'0 0.0
2019-Oct-17 17:00N 42°42' W 070°41'0 0.0
2019-Oct-17 16:30N 42°42' W 070°41'0 0.0
2019-Oct-17 15:47N 42°42' W 070°41'6 1.0
2019-Oct-17 09:00N 42°36' W 070°36'7 3.0 180 / 32978.0 5.4 15.6 12.0
2019-Oct-17 06:44N 42°43' W 070°38'2 9.5
2019-Oct-17 06:31N 42°43' W 070°35'510.5
2019-Oct-17 06:00N 42°39' W 070°29'612.1
2019-Oct-17 05:30N 42°35' W 070°34'612.2
2019-Oct-17 05:00N 42°31' W 070°41'612.6
2019-Oct-17 04:30N 42°27' W 070°48'4 7.2
2019-Oct-17 04:01N 42°24' W 070°48'611.0
2019-Oct-17 03:31N 42°23' W 070°41'5 6.5
2019-Oct-17 02:44N 42°28' W 070°43'1 5.8
2019-Oct-17 02:31N 42°28' W 070°45'4 7.2
2019-Oct-17 02:00N 42°24' W 070°44'1 0.4
2019-Oct-16 22:34N 42°24' W 070°45'1 9.6
2019-Oct-16 22:31N 42°24' W 070°46'611.2
2019-Oct-16 22:00N 42°23' W 070°54'510.9
2019-Oct-16 21:30N 42°20' W 071°01'1 1.3
2019-Oct-16 20:57N 42°21' W 071°02'0 0.0
2019-Oct-16 20:27N 42°21' W 071°02'0 0.0
2019-Oct-16 19:57N 42°21' W 071°02'0 0.0
2019-Oct-16 19:21N 42°21' W 071°02'0 0.0
2019-Oct-16 18:15N 42°21' W 071°02'0 0.0
2019-Oct-16 17:48N 42°21' W 071°02'0 0.0
2019-Oct-16 17:27N 42°21' W 071°02'0 0.0
2019-Oct-16 16:57N 42°21' W 071°02'0 0.0
2019-Oct-16 16:15N 42°21' W 071°02'0 0.0
2019-Oct-16 14:39N 42°21' W 071°02'0 0.0
2019-Oct-16 14:27N 42°21' W 071°02'0 0.0
2019-Oct-16 13:33N 42°21' W 071°02'0 0.0
2019-Oct-16 13:30N 42°21' W 071°02'0 0.0
2019-Oct-16 12:57N 42°21' W 071°02'0 0.0
2019-Oct-16 12:30N 42°21' W 071°02'0 0.0
2019-Oct-16 12:00N 42°21' W 071°02'1 2.0
2019-Oct-16 11:30N 42°20' W 071°00'4 7.9
2019-Oct-16 11:00N 42°22' W 070°55'510.7
2019-Oct-16 10:30N 42°24' W 070°49'4 8.2
2019-Oct-16 10:00N 42°24' W 070°43'  
2019-Oct-13 22:27N 44°22' W 063°28'920.9
2019-Oct-13 22:00N 44°31' W 063°31'713.0
2019-Oct-13 21:30N 44°37' W 063°33'1 2.4
2019-Oct-13 21:00N 44°38' W 063°34'0 0.0
2019-Oct-13 20:30N 44°38' W 063°34'0 0.0
2019-Oct-13 20:00N 44°38' W 063°34'0 0.0
2019-Oct-13 19:30N 44°38' W 063°34'0 0.0
2019-Oct-13 19:00N 44°38' W 063°34'0 0.0
2019-Oct-13 18:30N 44°38' W 063°34'0 0.0
2019-Oct-13 18:00N 44°38' W 063°34'0 0.0
2019-Oct-13 17:30N 44°38' W 063°34'0 0.0
2019-Oct-13 17:00N 44°38' W 063°34'0 0.0
2019-Oct-13 16:30N 44°38' W 063°34'0 0.0
2019-Oct-13 15:57N 44°38' W 063°34'0 0.0
2019-Oct-13 15:30N 44°38' W 063°34'0 0.0
2019-Oct-13 15:00N 44°38' W 063°34'0 0.0
2019-Oct-13 14:30N 44°38' W 063°34'0 0.0
2019-Oct-13 14:00N 44°38' W 063°34'0 0.0
2019-Oct-13 13:30N 44°38' W 063°34'0 0.0
2019-Oct-13 13:00N 44°38' W 063°34'0 0.0
2019-Oct-13 12:30N 44°38' W 063°34'0 0.0
2019-Oct-13 12:00N 44°38' W 063°34'0 0.0
2019-Oct-13 11:30N 44°38' W 063°34'0 0.0
2019-Oct-13 11:00N 44°38' W 063°34'1 1.5
2019-Oct-13 10:30N 44°38' W 063°33'612.6
2019-Oct-13 10:00N 44°32' W 063°31'611.3
2019-Oct-13 09:31N 44°27' W 063°26'815.0
2019-Oct-13 09:00N 44°27' W 063°15'817.0
2019-Oct-13 08:31N 44°27' W 063°03'  
2019-Oct-10 20:35N 49°10' W 058°23'219.6
2019-Oct-10 20:30N 49°09' W 058°20'918.8
2019-Oct-10 20:00N 49°04' W 058°09'713.3
2019-Oct-10 19:30N 48°59' W 058°02'4 7.0
2019-Oct-10 18:58N 48°58' W 057°57'0 0.0
2019-Oct-10 18:28N 48°58' W 057°57'0 0.0
2019-Oct-10 17:58N 48°58' W 057°57'0 0.0
2019-Oct-10 17:28N 48°58' W 057°57'0 0.0
2019-Oct-10 16:58N 48°58' W 057°57'0 0.0
2019-Oct-10 16:28N 48°58' W 057°57'0 0.0
2019-Oct-10 15:58N 48°58' W 057°57'0 0.0
2019-Oct-10 15:28N 48°58' W 057°57'0 0.0
2019-Oct-10 14:58N 48°58' W 057°57'0 0.0
2019-Oct-10 14:28N 48°58' W 057°57'0 0.0
2019-Oct-10 13:58N 48°58' W 057°57'0 0.0
2019-Oct-10 13:28N 48°58' W 057°57'0 0.0
2019-Oct-10 12:58N 48°58' W 057°57'0 0.0
2019-Oct-10 12:28N 48°58' W 057°57'0 0.0
2019-Oct-10 11:58N 48°58' W 057°57'0 0.0
2019-Oct-10 11:28N 48°58' W 057°57'0 0.1
2019-Oct-10 11:00N 48°58' W 057°57'2 3.1
2019-Oct-10 10:31N 48°58' W 057°59'713.6
2019-Oct-10 10:00N 49°02' W 058°08'610.8
2019-Oct-10 09:29N 49°05' W 058°14'511.5
2019-Oct-10 09:00N 49°09' W 058°20'  

Dump ship's entire track history